Aviation Digital Data Service (ADDS)

Output produced by METARs form (1347 UTC 20 November 2017)
found at http://aviationweather.gov/adds/metars/
 
UUWW 201330Z 17002MPS 9999 SCT027 00/M01 Q1011 R19/290045 NOSIG